sensor_id;sensor_type;location;lat;lon;timestamp;P1;P2;P0
30342;PMS5003;17145;49.902;8.680;2022-11-04T00:01:49;5;3;
30342;PMS5003;17145;49.902;8.680;2022-11-04T00:04:18;4;4;
30342;PMS5003;17145;49.902;8.680;2022-11-04T00:06:47;7;5;
30342;PMS5003;17145;49.902;8.680;2022-11-04T00:09:16;5;4;
30342;PMS5003;17145;49.902;8.680;2022-11-04T00:11:45;4;3;
30342;PMS5003;17145;49.902;8.680;2022-11-04T00:14:13;3;3;
30342;PMS5003;17145;49.902;8.680;2022-11-04T00:16:41;6;4;
30342;PMS5003;17145;49.902;8.680;2022-11-04T00:19:09;5;5;
30342;PMS5003;17145;49.902;8.680;2022-11-04T00:21:37;7;5;
30342;PMS5003;17145;49.902;8.680;2022-11-04T00:24:05;4;4;
30342;PMS5003;17145;49.902;8.680;2022-11-04T00:26:34;7;5;
30342;PMS5003;17145;49.902;8.680;2022-11-04T00:29:03;6;4;
30342;PMS5003;17145;49.902;8.680;2022-11-04T00:31:30;6;5;
30342;PMS5003;17145;49.902;8.680;2022-11-04T00:33:58;7;5;
30342;PMS5003;17145;49.902;8.680;2022-11-04T00:36:25;4;4;
30342;PMS5003;17145;49.902;8.680;2022-11-04T00:38:53;5;5;
30342;PMS5003;17145;49.902;8.680;2022-11-04T00:41:20;7;7;
30342;PMS5003;17145;49.902;8.680;2022-11-04T00:43:47;5;5;
30342;PMS5003;17145;49.902;8.680;2022-11-04T00:46:15;7;6;
30342;PMS5003;17145;49.902;8.680;2022-11-04T00:48:43;7;6;
30342;PMS5003;17145;49.902;8.680;2022-11-04T00:51:10;6;6;
30342;PMS5003;17145;49.902;8.680;2022-11-04T00:53:37;11;9;
30342;PMS5003;17145;49.902;8.680;2022-11-04T00:56:05;13;11;
30342;PMS5003;17145;49.902;8.680;2022-11-04T00:58:32;9;9;
30342;PMS5003;17145;49.902;8.680;2022-11-04T01:01:00;7;7;
30342;PMS5003;17145;49.902;8.680;2022-11-04T01:03:34;9;9;
30342;PMS5003;17145;49.902;8.680;2022-11-04T01:06:01;9;9;
30342;PMS5003;17145;49.902;8.680;2022-11-04T01:08:29;9;7;
30342;PMS5003;17145;49.902;8.680;2022-11-04T01:10:59;7;7;
30342;PMS5003;17145;49.902;8.680;2022-11-04T01:13:27;9;7;
30342;PMS5003;17145;49.902;8.680;2022-11-04T01:15:56;10;9;
30342;PMS5003;17145;49.902;8.680;2022-11-04T01:18:24;9;7;
30342;PMS5003;17145;49.902;8.680;2022-11-04T01:20:52;9;7;
30342;PMS5003;17145;49.902;8.680;2022-11-04T01:23:20;11;9;
30342;PMS5003;17145;49.902;8.680;2022-11-04T01:25:48;11;9;
30342;PMS5003;17145;49.902;8.680;2022-11-04T01:28:16;12;10;
30342;PMS5003;17145;49.902;8.680;2022-11-04T01:30:43;10;9;
30342;PMS5003;17145;49.902;8.680;2022-11-04T01:33:11;10;10;
30342;PMS5003;17145;49.902;8.680;2022-11-04T01:35:39;11;11;
30342;PMS5003;17145;49.902;8.680;2022-11-04T01:38:06;10;10;
30342;PMS5003;17145;49.902;8.680;2022-11-04T01:40:35;11;11;
30342;PMS5003;17145;49.902;8.680;2022-11-04T01:43:04;12;12;
30342;PMS5003;17145;49.902;8.680;2022-11-04T01:45:38;11;11;
30342;PMS5003;17145;49.902;8.680;2022-11-04T01:48:08;12;12;
30342;PMS5003;17145;49.902;8.680;2022-11-04T01:50:50;12;12;
30342;PMS5003;17145;49.902;8.680;2022-11-04T01:53:20;13;13;
30342;PMS5003;17145;49.902;8.680;2022-11-04T01:55:54;13;12;
30342;PMS5003;17145;49.902;8.680;2022-11-04T01:58:25;11;11;
30342;PMS5003;17145;49.902;8.680;2022-11-04T02:00:55;16;12;
30342;PMS5003;17145;49.902;8.680;2022-11-04T02:03:24;13;13;
30342;PMS5003;17145;49.902;8.680;2022-11-04T02:05:54;13;12;
30342;PMS5003;17145;49.902;8.680;2022-11-04T02:08:23;14;13;
30342;PMS5003;17145;49.902;8.680;2022-11-04T02:10:53;16;16;
30342;PMS5003;17145;49.902;8.680;2022-11-04T02:13:24;17;17;
30342;PMS5003;17145;49.902;8.680;2022-11-04T02:15:54;19;18;
30342;PMS5003;17145;49.902;8.680;2022-11-04T02:18:33;17;17;
30342;PMS5003;17145;49.902;8.680;2022-11-04T02:21:16;19;18;
30342;PMS5003;17145;49.902;8.680;2022-11-04T02:26:40;17;17;
30342;PMS5003;17145;49.902;8.680;2022-11-04T02:29:19;19;18;
30342;PMS5003;17145;49.902;8.680;2022-11-04T02:31:56;22;20;
30342;PMS5003;17145;49.902;8.680;2022-11-04T02:34:34;22;22;
30342;PMS5003;17145;49.902;8.680;2022-11-04T02:37:11;24;24;
30342;PMS5003;17145;49.902;8.680;2022-11-04T02:39:48;24;21;
30342;PMS5003;17145;49.902;8.680;2022-11-04T02:42:23;28;26;
30342;PMS5003;17145;49.902;8.680;2022-11-04T02:44:57;27;26;
30342;PMS5003;17145;49.902;8.680;2022-11-04T02:47:35;25;25;
30342;PMS5003;17145;49.902;8.680;2022-11-04T02:50:07;24;24;
30342;PMS5003;17145;49.902;8.680;2022-11-04T02:52:41;24;24;
30342;PMS5003;17145;49.902;8.680;2022-11-04T02:55:17;24;22;
30342;PMS5003;17145;49.902;8.680;2022-11-04T02:57:50;22;22;
30342;PMS5003;17145;49.902;8.680;2022-11-04T03:00:20;20;20;
30342;PMS5003;17145;49.902;8.680;2022-11-04T03:02:50;21;21;
30342;PMS5003;17145;49.902;8.680;2022-11-04T03:05:24;22;22;
30342;PMS5003;17145;49.902;8.680;2022-11-04T03:07:55;22;21;
30342;PMS5003;17145;49.902;8.680;2022-11-04T03:10:28;19;19;
30342;PMS5003;17145;49.902;8.680;2022-11-04T03:13:02;16;11;
30342;PMS5003;17145;49.902;8.680;2022-11-04T03:15:34;23;21;
30342;PMS5003;17145;49.902;8.680;2022-11-04T03:18:07;20;20;
30342;PMS5003;17145;49.902;8.680;2022-11-04T03:20:44;17;16;
30342;PMS5003;17145;49.902;8.680;2022-11-04T03:23:14;17;17;
30342;PMS5003;17145;49.902;8.680;2022-11-04T03:25:43;24;20;
30342;PMS5003;17145;49.902;8.680;2022-11-04T03:28:17;18;13;
30342;PMS5003;17145;49.902;8.680;2022-11-04T03:30:53;20;20;
30342;PMS5003;17145;49.902;8.680;2022-11-04T03:33:25;14;14;
30342;PMS5003;17145;49.902;8.680;2022-11-04T03:35:59;18;18;
30342;PMS5003;17145;49.902;8.680;2022-11-04T03:38:27;20;20;
30342;PMS5003;17145;49.902;8.680;2022-11-04T03:40:54;23;23;
30342;PMS5003;17145;49.902;8.680;2022-11-04T03:43:25;35;34;
30342;PMS5003;17145;49.902;8.680;2022-11-04T03:45:54;41;41;
30342;PMS5003;17145;49.902;8.680;2022-11-04T03:48:22;42;42;
30342;PMS5003;17145;49.902;8.680;2022-11-04T03:50:50;39;39;
30342;PMS5003;17145;49.902;8.680;2022-11-04T03:53:18;25;25;
30342;PMS5003;17145;49.902;8.680;2022-11-04T03:55:53;16;14;
30342;PMS5003;17145;49.902;8.680;2022-11-04T03:58:32;11;11;
30342;PMS5003;17145;49.902;8.680;2022-11-04T04:01:10;9;9;
30342;PMS5003;17145;49.902;8.680;2022-11-04T04:03:49;8;5;
30342;PMS5003;17145;49.902;8.680;2022-11-04T04:06:24;8;5;
30342;PMS5003;17145;49.902;8.680;2022-11-04T04:08:57;4;4;
30342;PMS5003;17145;49.902;8.680;2022-11-04T04:11:34;6;5;
30342;PMS5003;17145;49.902;8.680;2022-11-04T04:14:09;5;4;
30342;PMS5003;17145;49.902;8.680;2022-11-04T04:16:44;5;5;
30342;PMS5003;17145;49.902;8.680;2022-11-04T04:19:15;4;4;
30342;PMS5003;17145;49.902;8.680;2022-11-04T04:21:47;5;4;
30342;PMS5003;17145;49.902;8.680;2022-11-04T04:24:21;3;3;
30342;PMS5003;17145;49.902;8.680;2022-11-04T04:26:52;3;3;
30342;PMS5003;17145;49.902;8.680;2022-11-04T04:29:22;5;4;
30342;PMS5003;17145;49.902;8.680;2022-11-04T04:31:52;4;3;
30342;PMS5003;17145;49.902;8.680;2022-11-04T04:34:24;5;5;
30342;PMS5003;17145;49.902;8.680;2022-11-04T04:36:56;38;28;
30342;PMS5003;17145;49.902;8.680;2022-11-04T04:39:29;17;17;
30342;PMS5003;17145;49.902;8.680;2022-11-04T04:42:01;13;13;
30342;PMS5003;17145;49.902;8.680;2022-11-04T04:44:30;5;4;
30342;PMS5003;17145;49.902;8.680;2022-11-04T04:46:57;4;4;
30342;PMS5003;17145;49.902;8.680;2022-11-04T04:49:28;5;5;
30342;PMS5003;17145;49.902;8.680;2022-11-04T04:51:55;3;3;
30342;PMS5003;17145;49.902;8.680;2022-11-04T04:54:23;4;4;
30342;PMS5003;17145;49.902;8.680;2022-11-04T04:56:51;6;5;
30342;PMS5003;17145;49.902;8.680;2022-11-04T04:59:18;3;3;
30342;PMS5003;17145;49.902;8.680;2022-11-04T05:01:46;3;3;
30342;PMS5003;17145;49.902;8.680;2022-11-04T05:04:13;6;4;
30342;PMS5003;17145;49.902;8.680;2022-11-04T05:06:41;5;5;
30342;PMS5003;17145;49.902;8.680;2022-11-04T05:09:08;6;4;
30342;PMS5003;17145;49.902;8.680;2022-11-04T05:11:36;3;3;
30342;PMS5003;17145;49.902;8.680;2022-11-04T05:14:03;4;4;
30342;PMS5003;17145;49.902;8.680;2022-11-04T05:16:31;4;3;
30342;PMS5003;17145;49.902;8.680;2022-11-04T05:18:58;6;4;
30342;PMS5003;17145;49.902;8.680;2022-11-04T05:21:26;6;4;
30342;PMS5003;17145;49.902;8.680;2022-11-04T05:23:53;4;3;
30342;PMS5003;17145;49.902;8.680;2022-11-04T05:26:21;4;3;
30342;PMS5003;17145;49.902;8.680;2022-11-04T05:28:49;3;3;
30342;PMS5003;17145;49.902;8.680;2022-11-04T05:31:16;3;3;
30342;PMS5003;17145;49.902;8.680;2022-11-04T05:33:44;4;4;
30342;PMS5003;17145;49.902;8.680;2022-11-04T05:36:12;6;6;
30342;PMS5003;17145;49.902;8.680;2022-11-04T05:38:41;3;3;
30342;PMS5003;17145;49.902;8.680;2022-11-04T05:41:10;8;6;
30342;PMS5003;17145;49.902;8.680;2022-11-04T05:43:38;9;5;
30342;PMS5003;17145;49.902;8.680;2022-11-04T05:46:06;5;4;
30342;PMS5003;17145;49.902;8.680;2022-11-04T05:48:33;6;6;
30342;PMS5003;17145;49.902;8.680;2022-11-04T05:51:01;4;4;
30342;PMS5003;17145;49.902;8.680;2022-11-04T05:53:28;5;4;
30342;PMS5003;17145;49.902;8.680;2022-11-04T05:55:56;5;5;
30342;PMS5003;17145;49.902;8.680;2022-11-04T05:58:23;7;7;
30342;PMS5003;17145;49.902;8.680;2022-11-04T06:00:51;6;6;
30342;PMS5003;17145;49.902;8.680;2022-11-04T06:03:18;5;4;
30342;PMS5003;17145;49.902;8.680;2022-11-04T06:05:46;6;5;
30342;PMS5003;17145;49.902;8.680;2022-11-04T06:08:13;4;4;
30342;PMS5003;17145;49.902;8.680;2022-11-04T06:10:41;4;4;
30342;PMS5003;17145;49.902;8.680;2022-11-04T06:13:09;4;3;
30342;PMS5003;17145;49.902;8.680;2022-11-04T06:15:36;5;5;
30342;PMS5003;17145;49.902;8.680;2022-11-04T06:18:04;5;5;
30342;PMS5003;17145;49.902;8.680;2022-11-04T06:20:32;4;4;
30342;PMS5003;17145;49.902;8.680;2022-11-04T06:23:00;6;4;
30342;PMS5003;17145;49.902;8.680;2022-11-04T06:25:27;6;5;
30342;PMS5003;17145;49.902;8.680;2022-11-04T06:27:55;5;5;
30342;PMS5003;17145;49.902;8.680;2022-11-04T06:30:23;3;3;
30342;PMS5003;17145;49.902;8.680;2022-11-04T06:32:51;12;4;
30342;PMS5003;17145;49.902;8.680;2022-11-04T06:35:18;9;5;
30342;PMS5003;17145;49.902;8.680;2022-11-04T06:37:46;7;7;
30342;PMS5003;17145;49.902;8.680;2022-11-04T06:40:14;8;8;
30342;PMS5003;17145;49.902;8.680;2022-11-04T06:42:42;6;5;
30342;PMS5003;17145;49.902;8.680;2022-11-04T06:45:10;8;6;
30342;PMS5003;17145;49.902;8.680;2022-11-04T06:47:38;8;8;
30342;PMS5003;17145;49.902;8.680;2022-11-04T06:50:05;8;8;
30342;PMS5003;17145;49.902;8.680;2022-11-04T06:52:33;10;9;
30342;PMS5003;17145;49.902;8.680;2022-11-04T06:55:01;9;8;
30342;PMS5003;17145;49.902;8.680;2022-11-04T06:57:28;10;9;
30342;PMS5003;17145;49.902;8.680;2022-11-04T06:59:56;10;9;
30342;PMS5003;17145;49.902;8.680;2022-11-04T07:02:23;6;5;
30342;PMS5003;17145;49.902;8.680;2022-11-04T07:04:51;9;9;
30342;PMS5003;17145;49.902;8.680;2022-11-04T07:07:19;10;10;
30342;PMS5003;17145;49.902;8.680;2022-11-04T07:09:46;14;9;
30342;PMS5003;17145;49.902;8.680;2022-11-04T07:12:13;8;8;
30342;PMS5003;17145;49.902;8.680;2022-11-04T07:14:41;8;7;
30342;PMS5003;17145;49.902;8.680;2022-11-04T07:17:08;8;8;
30342;PMS5003;17145;49.902;8.680;2022-11-04T07:19:36;9;8;
30342;PMS5003;17145;49.902;8.680;2022-11-04T07:22:03;7;7;
30342;PMS5003;17145;49.902;8.680;2022-11-04T07:24:31;4;4;
30342;PMS5003;17145;49.902;8.680;2022-11-04T07:26:59;7;7;
30342;PMS5003;17145;49.902;8.680;2022-11-04T07:29:26;7;5;
30342;PMS5003;17145;49.902;8.680;2022-11-04T07:31:53;5;5;
30342;PMS5003;17145;49.902;8.680;2022-11-04T07:34:21;8;8;
30342;PMS5003;17145;49.902;8.680;2022-11-04T07:36:49;10;10;
30342;PMS5003;17145;49.902;8.680;2022-11-04T07:39:17;9;9;
30342;PMS5003;17145;49.902;8.680;2022-11-04T07:41:44;9;8;
30342;PMS5003;17145;49.902;8.680;2022-11-04T07:44:12;10;9;
30342;PMS5003;17145;49.902;8.680;2022-11-04T07:46:40;10;9;
30342;PMS5003;17145;49.902;8.680;2022-11-04T07:49:08;12;10;
30342;PMS5003;17145;49.902;8.680;2022-11-04T07:51:35;10;9;
30342;PMS5003;17145;49.902;8.680;2022-11-04T07:54:03;8;8;
30342;PMS5003;17145;49.902;8.680;2022-11-04T07:56:31;8;8;
30342;PMS5003;17145;49.902;8.680;2022-11-04T07:58:58;9;9;
30342;PMS5003;17145;49.902;8.680;2022-11-04T08:01:26;9;9;
30342;PMS5003;17145;49.902;8.680;2022-11-04T08:03:54;10;9;
30342;PMS5003;17145;49.902;8.680;2022-11-04T08:06:21;10;9;
30342;PMS5003;17145;49.902;8.680;2022-11-04T08:08:49;10;9;
30342;PMS5003;17145;49.902;8.680;2022-11-04T08:11:18;7;7;
30342;PMS5003;17145;49.902;8.680;2022-11-04T08:13:46;8;8;
30342;PMS5003;17145;49.902;8.680;2022-11-04T08:16:15;8;7;
30342;PMS5003;17145;49.902;8.680;2022-11-04T08:18:44;5;5;
30342;PMS5003;17145;49.902;8.680;2022-11-04T08:21:13;9;8;
30342;PMS5003;17145;49.902;8.680;2022-11-04T08:23:41;5;5;
30342;PMS5003;17145;49.902;8.680;2022-11-04T08:26:09;5;5;
30342;PMS5003;17145;49.902;8.680;2022-11-04T08:28:39;7;5;
30342;PMS5003;17145;49.902;8.680;2022-11-04T08:31:07;7;5;
30342;PMS5003;17145;49.902;8.680;2022-11-04T08:33:37;5;5;
30342;PMS5003;17145;49.902;8.680;2022-11-04T08:36:06;7;5;
30342;PMS5003;17145;49.902;8.680;2022-11-04T08:38:35;8;5;
30342;PMS5003;17145;49.902;8.680;2022-11-04T08:41:04;5;5;
30342;PMS5003;17145;49.902;8.680;2022-11-04T08:43:33;4;4;
30342;PMS5003;17145;49.902;8.680;2022-11-04T08:46:02;5;5;
30342;PMS5003;17145;49.902;8.680;2022-11-04T08:48:32;7;5;
30342;PMS5003;17145;49.902;8.680;2022-11-04T08:51:01;8;7;
30342;PMS5003;17145;49.902;8.680;2022-11-04T08:53:31;8;7;
30342;PMS5003;17145;49.902;8.680;2022-11-04T08:55:58;5;5;
30342;PMS5003;17145;49.902;8.680;2022-11-04T08:58:26;4;4;
30342;PMS5003;17145;49.902;8.680;2022-11-04T09:00:53;7;5;
30342;PMS5003;17145;49.902;8.680;2022-11-04T09:03:21;7;5;
30342;PMS5003;17145;49.902;8.680;2022-11-04T09:05:48;9;5;
30342;PMS5003;17145;49.902;8.680;2022-11-04T09:08:16;8;7;
30342;PMS5003;17145;49.902;8.680;2022-11-04T09:10:45;5;5;
30342;PMS5003;17145;49.902;8.680;2022-11-04T09:13:14;7;7;
30342;PMS5003;17145;49.902;8.680;2022-11-04T09:15:42;5;5;
30342;PMS5003;17145;49.902;8.680;2022-11-04T09:18:10;8;7;
30342;PMS5003;17145;49.902;8.680;2022-11-04T09:20:38;5;5;
30342;PMS5003;17145;49.902;8.680;2022-11-04T09:23:05;8;7;
30342;PMS5003;17145;49.902;8.680;2022-11-04T09:25:34;8;7;
30342;PMS5003;17145;49.902;8.680;2022-11-04T09:28:02;5;5;
30342;PMS5003;17145;49.902;8.680;2022-11-04T09:30:30;7;7;
30342;PMS5003;17145;49.902;8.680;2022-11-04T09:32:58;7;5;
30342;PMS5003;17145;49.902;8.680;2022-11-04T09:35:26;8;7;
30342;PMS5003;17145;49.902;8.680;2022-11-04T09:37:54;4;3;
30342;PMS5003;17145;49.902;8.680;2022-11-04T09:40:22;3;3;
30342;PMS5003;17145;49.902;8.680;2022-11-04T09:42:54;4;4;
30342;PMS5003;17145;49.902;8.680;2022-11-04T09:45:33;8;5;
30342;PMS5003;17145;49.902;8.680;2022-11-04T09:48:05;4;4;
30342;PMS5003;17145;49.902;8.680;2022-11-04T09:50:43;4;3;
30342;PMS5003;17145;49.902;8.680;2022-11-04T09:53:14;5;4;
30342;PMS5003;17145;49.902;8.680;2022-11-04T09:55:48;4;4;
30342;PMS5003;17145;49.902;8.680;2022-11-04T09:58:20;5;4;
30342;PMS5003;17145;49.902;8.680;2022-11-04T10:00:49;7;4;
30342;PMS5003;17145;49.902;8.680;2022-11-04T10:03:26;3;3;
30342;PMS5003;17145;49.902;8.680;2022-11-04T10:06:05;5;4;
30342;PMS5003;17145;49.902;8.680;2022-11-04T10:08:46;5;5;
30342;PMS5003;17145;49.902;8.680;2022-11-04T10:11:26;8;7;
30342;PMS5003;17145;49.902;8.680;2022-11-04T10:14:06;4;3;
30342;PMS5003;17145;49.902;8.680;2022-11-04T10:16:50;7;5;
30342;PMS5003;17145;49.902;8.680;2022-11-04T10:19:33;4;4;
30342;PMS5003;17145;49.902;8.680;2022-11-04T10:22:10;5;5;
30342;PMS5003;17145;49.902;8.680;2022-11-04T10:24:47;5;4;
30342;PMS5003;17145;49.902;8.680;2022-11-04T10:27:22;5;5;
30342;PMS5003;17145;49.902;8.680;2022-11-04T10:29:55;8;5;
30342;PMS5003;17145;49.902;8.680;2022-11-04T10:32:27;5;4;
30342;PMS5003;17145;49.902;8.680;2022-11-04T10:35:01;4;4;
30342;PMS5003;17145;49.902;8.680;2022-11-04T10:37:35;7;7;
30342;PMS5003;17145;49.902;8.680;2022-11-04T10:40:06;7;7;
30342;PMS5003;17145;49.902;8.680;2022-11-04T10:42:43;7;5;
30342;PMS5003;17145;49.902;8.680;2022-11-04T10:45:11;4;4;
30342;PMS5003;17145;49.902;8.680;2022-11-04T10:47:41;5;4;
30342;PMS5003;17145;49.902;8.680;2022-11-04T10:50:18;5;4;
30342;PMS5003;17145;49.902;8.680;2022-11-04T10:52:53;8;5;
30342;PMS5003;17145;49.902;8.680;2022-11-04T10:55:28;4;4;
30342;PMS5003;17145;49.902;8.680;2022-11-04T10:58:02;4;4;
30342;PMS5003;17145;49.902;8.680;2022-11-04T11:00:34;4;4;
30342;PMS5003;17145;49.902;8.680;2022-11-04T11:03:03;9;7;
30342;PMS5003;17145;49.902;8.680;2022-11-04T11:05:45;17;14;
30342;PMS5003;17145;49.902;8.680;2022-11-04T11:08:24;15;15;
30342;PMS5003;17145;49.902;8.680;2022-11-04T11:10:55;7;7;
30342;PMS5003;17145;49.902;8.680;2022-11-04T11:13:24;8;5;
30342;PMS5003;17145;49.902;8.680;2022-11-04T11:18:32;4;4;
30342;PMS5003;17145;49.902;8.680;2022-11-04T11:21:04;4;4;
30342;PMS5003;17145;49.902;8.680;2022-11-04T11:23:36;5;5;
30342;PMS5003;17145;49.902;8.680;2022-11-04T11:26:06;5;3;
30342;PMS5003;17145;49.902;8.680;2022-11-04T11:28:36;5;5;
30342;PMS5003;17145;49.902;8.680;2022-11-04T11:31:07;5;5;
30342;PMS5003;17145;49.902;8.680;2022-11-04T11:33:39;5;5;
30342;PMS5003;17145;49.902;8.680;2022-11-04T11:36:15;7;5;
30342;PMS5003;17145;49.902;8.680;2022-11-04T11:38:56;5;4;
30342;PMS5003;17145;49.902;8.680;2022-11-04T11:41:27;5;5;
30342;PMS5003;17145;49.902;8.680;2022-11-04T11:43:57;7;7;
30342;PMS5003;17145;49.902;8.680;2022-11-04T11:46:30;8;7;
30342;PMS5003;17145;49.902;8.680;2022-11-04T11:49:00;7;5;
30342;PMS5003;17145;49.902;8.680;2022-11-04T11:51:30;7;5;
30342;PMS5003;17145;49.902;8.680;2022-11-04T11:56:42;7;5;
30342;PMS5003;17145;49.902;8.680;2022-11-04T11:59:18;5;5;
30342;PMS5003;17145;49.902;8.680;2022-11-04T12:01:55;7;7;
30342;PMS5003;17145;49.902;8.680;2022-11-04T12:04:30;7;5;
30342;PMS5003;17145;49.902;8.680;2022-11-04T12:07:00;7;5;
30342;PMS5003;17145;49.902;8.680;2022-11-04T12:09:37;7;7;
30342;PMS5003;17145;49.902;8.680;2022-11-04T12:12:15;8;7;
30342;PMS5003;17145;49.902;8.680;2022-11-04T12:14:52;5;5;
30342;PMS5003;17145;49.902;8.680;2022-11-04T12:17:34;9;7;
30342;PMS5003;17145;49.902;8.680;2022-11-04T12:20:16;5;5;
30342;PMS5003;17145;49.902;8.680;2022-11-04T12:22:54;7;7;
30342;PMS5003;17145;49.902;8.680;2022-11-04T12:25:31;7;5;
30342;PMS5003;17145;49.902;8.680;2022-11-04T12:28:10;5;5;
30342;PMS5003;17145;49.902;8.680;2022-11-04T12:30:51;7;5;
30342;PMS5003;17145;49.902;8.680;2022-11-04T12:33:31;10;7;
30342;PMS5003;17145;49.902;8.680;2022-11-04T12:36:12;8;7;
30342;PMS5003;17145;49.902;8.680;2022-11-04T12:38:55;5;5;
30342;PMS5003;17145;49.902;8.680;2022-11-04T12:41:35;5;5;
30342;PMS5003;17145;49.902;8.680;2022-11-04T12:44:13;5;5;
30342;PMS5003;17145;49.902;8.680;2022-11-04T12:46:50;8;7;
30342;PMS5003;17145;49.902;8.680;2022-11-04T12:49:37;7;7;
30342;PMS5003;17145;49.902;8.680;2022-11-04T12:52:21;5;4;
30342;PMS5003;17145;49.902;8.680;2022-11-04T12:55:03;7;7;
30342;PMS5003;17145;49.902;8.680;2022-11-04T12:57:39;7;5;
30342;PMS5003;17145;49.902;8.680;2022-11-04T13:00:13;5;5;
30342;PMS5003;17145;49.902;8.680;2022-11-04T13:02:45;5;4;
30342;PMS5003;17145;49.902;8.680;2022-11-04T13:05:22;4;4;
30342;PMS5003;17145;49.902;8.680;2022-11-04T13:08:00;4;4;
30342;PMS5003;17145;49.902;8.680;2022-11-04T13:10:36;5;5;
30342;PMS5003;17145;49.902;8.680;2022-11-04T13:13:08;5;4;
30342;PMS5003;17145;49.902;8.680;2022-11-04T13:15:43;7;5;
30342;PMS5003;17145;49.902;8.680;2022-11-04T13:18:15;7;7;
30342;PMS5003;17145;49.902;8.680;2022-11-04T13:20:48;5;5;
30342;PMS5003;17145;49.902;8.680;2022-11-04T13:23:22;7;5;
30342;PMS5003;17145;49.902;8.680;2022-11-04T13:25:54;5;4;
30342;PMS5003;17145;49.902;8.680;2022-11-04T13:28:22;8;8;
30342;PMS5003;17145;49.902;8.680;2022-11-04T13:30:53;7;7;
30342;PMS5003;17145;49.902;8.680;2022-11-04T13:33:31;5;5;
30342;PMS5003;17145;49.902;8.680;2022-11-04T13:36:05;7;7;
30342;PMS5003;17145;49.902;8.680;2022-11-04T13:38:42;5;5;
30342;PMS5003;17145;49.902;8.680;2022-11-04T13:43:52;5;5;
30342;PMS5003;17145;49.902;8.680;2022-11-04T13:46:23;9;8;
30342;PMS5003;17145;49.902;8.680;2022-11-04T13:48:56;7;7;
30342;PMS5003;17145;49.902;8.680;2022-11-04T13:51:38;7;7;
30342;PMS5003;17145;49.902;8.680;2022-11-04T13:54:12;8;7;
30342;PMS5003;17145;49.902;8.680;2022-11-04T13:59:30;7;7;
30342;PMS5003;17145;49.902;8.680;2022-11-04T14:04:44;5;5;
30342;PMS5003;17145;49.902;8.680;2022-11-04T14:07:13;5;5;
30342;PMS5003;17145;49.902;8.680;2022-11-04T14:12:24;5;5;
30342;PMS5003;17145;49.902;8.680;2022-11-04T14:15:02;5;5;
30342;PMS5003;17145;49.902;8.680;2022-11-04T14:20:23;8;8;
30342;PMS5003;17145;49.902;8.680;2022-11-04T14:22:54;8;7;
30342;PMS5003;17145;49.902;8.680;2022-11-04T14:25:25;7;7;
30342;PMS5003;17145;49.902;8.680;2022-11-04T14:27:56;7;7;
30342;PMS5003;17145;49.902;8.680;2022-11-04T14:30:27;7;7;
30342;PMS5003;17145;49.902;8.680;2022-11-04T14:33:00;5;5;
30342;PMS5003;17145;49.902;8.680;2022-11-04T14:35:29;5;5;
30342;PMS5003;17145;49.902;8.680;2022-11-04T14:37:59;8;7;
30342;PMS5003;17145;49.902;8.680;2022-11-04T14:43:16;7;7;
30342;PMS5003;17145;49.902;8.680;2022-11-04T14:45:53;7;7;
30342;PMS5003;17145;49.902;8.680;2022-11-04T14:48:21;8;8;
30342;PMS5003;17145;49.902;8.680;2022-11-04T14:50:50;8;7;
30342;PMS5003;17145;49.902;8.680;2022-11-04T14:53:21;7;7;
30342;PMS5003;17145;49.902;8.680;2022-11-04T14:56:03;9;8;
30342;PMS5003;17145;49.902;8.680;2022-11-04T14:58:36;11;8;
30342;PMS5003;17145;49.902;8.680;2022-11-04T15:01:04;11;9;
30342;PMS5003;17145;49.902;8.680;2022-11-04T15:03:32;13;10;
30342;PMS5003;17145;49.902;8.680;2022-11-04T15:06:03;13;11;
30342;PMS5003;17145;49.902;8.680;2022-11-04T15:08:34;15;15;
30342;PMS5003;17145;49.902;8.680;2022-11-04T15:11:04;16;16;
30342;PMS5003;17145;49.902;8.680;2022-11-04T15:13:34;10;10;
30342;PMS5003;17145;49.902;8.680;2022-11-04T15:16:06;10;10;
30342;PMS5003;17145;49.902;8.680;2022-11-04T15:18:37;9;9;
30342;PMS5003;17145;49.902;8.680;2022-11-04T15:21:06;8;8;
30342;PMS5003;17145;49.902;8.680;2022-11-04T15:23:36;8;7;
30342;PMS5003;17145;49.902;8.680;2022-11-04T15:28:46;5;5;
30342;PMS5003;17145;49.902;8.680;2022-11-04T15:31:16;4;4;
30342;PMS5003;17145;49.902;8.680;2022-11-04T15:33:47;8;7;
30342;PMS5003;17145;49.902;8.680;2022-11-04T15:36:17;8;7;
30342;PMS5003;17145;49.902;8.680;2022-11-04T15:38:48;4;4;
30342;PMS5003;17145;49.902;8.680;2022-11-04T15:41:19;9;4;
30342;PMS5003;17145;49.902;8.680;2022-11-04T15:43:48;7;5;
30342;PMS5003;17145;49.902;8.680;2022-11-04T15:46:17;5;4;
30342;PMS5003;17145;49.902;8.680;2022-11-04T15:51:27;5;4;
30342;PMS5003;17145;49.902;8.680;2022-11-04T15:54:01;8;7;
30342;PMS5003;17145;49.902;8.680;2022-11-04T15:56:31;4;4;
30342;PMS5003;17145;49.902;8.680;2022-11-04T15:59:01;5;5;
30342;PMS5003;17145;49.902;8.680;2022-11-04T16:01:33;4;4;
30342;PMS5003;17145;49.902;8.680;2022-11-04T16:04:11;7;5;
30342;PMS5003;17145;49.902;8.680;2022-11-04T16:06:41;8;5;
30342;PMS5003;17145;49.902;8.680;2022-11-04T16:09:18;4;4;
30342;PMS5003;17145;49.902;8.680;2022-11-04T16:14:31;7;5;
30342;PMS5003;17145;49.902;8.680;2022-11-04T16:16:58;7;7;
30342;PMS5003;17145;49.902;8.680;2022-11-04T16:19:27;5;5;
30342;PMS5003;17145;49.902;8.680;2022-11-04T16:21:58;7;7;
30342;PMS5003;17145;49.902;8.680;2022-11-04T16:24:28;8;5;
30342;PMS5003;17145;49.902;8.680;2022-11-04T16:26:59;8;5;
30342;PMS5003;17145;49.902;8.680;2022-11-04T16:29:27;8;7;
30342;PMS5003;17145;49.902;8.680;2022-11-04T16:32:04;8;7;
30342;PMS5003;17145;49.902;8.680;2022-11-04T16:34:34;5;5;
30342;PMS5003;17145;49.902;8.680;2022-11-04T16:37:02;4;4;
30342;PMS5003;17145;49.902;8.680;2022-11-04T16:39:29;5;5;
30342;PMS5003;17145;49.902;8.680;2022-11-04T16:41:57;7;5;
30342;PMS5003;17145;49.902;8.680;2022-11-04T16:44:25;7;5;
30342;PMS5003;17145;49.902;8.680;2022-11-04T16:46:52;3;3;
30342;PMS5003;17145;49.902;8.680;2022-11-04T16:49:20;7;5;
30342;PMS5003;17145;49.902;8.680;2022-11-04T16:51:49;7;5;
30342;PMS5003;17145;49.902;8.680;2022-11-04T16:54:19;4;4;
30342;PMS5003;17145;49.902;8.680;2022-11-04T16:56:47;5;5;
30342;PMS5003;17145;49.902;8.680;2022-11-04T16:59:15;7;4;
30342;PMS5003;17145;49.902;8.680;2022-11-04T17:01:42;7;4;
30342;PMS5003;17145;49.902;8.680;2022-11-04T17:04:10;5;5;
30342;PMS5003;17145;49.902;8.680;2022-11-04T17:06:37;4;4;
30342;PMS5003;17145;49.902;8.680;2022-11-04T17:09:05;4;4;
30342;PMS5003;17145;49.902;8.680;2022-11-04T17:11:43;7;3;
30342;PMS5003;17145;49.902;8.680;2022-11-04T17:14:10;4;4;
30342;PMS5003;17145;49.902;8.680;2022-11-04T17:16:38;5;4;
30342;PMS5003;17145;49.902;8.680;2022-11-04T17:19:07;7;5;
30342;PMS5003;17145;49.902;8.680;2022-11-04T17:21:36;4;4;
30342;PMS5003;17145;49.902;8.680;2022-11-04T17:24:05;4;3;
30342;PMS5003;17145;49.902;8.680;2022-11-04T17:26:33;5;3;
30342;PMS5003;17145;49.902;8.680;2022-11-04T17:29:00;3;3;
30342;PMS5003;17145;49.902;8.680;2022-11-04T17:31:28;4;4;
30342;PMS5003;17145;49.902;8.680;2022-11-04T17:33:55;4;3;
30342;PMS5003;17145;49.902;8.680;2022-11-04T17:36:23;4;4;
30342;PMS5003;17145;49.902;8.680;2022-11-04T17:38:51;3;3;
30342;PMS5003;17145;49.902;8.680;2022-11-04T17:41:18;5;4;